Time;durP1;ratioP1;P1;durP2;ratioP2;P2;SDS_P1;SDS_P2;PMS_P1;PMS_P2;Temp;Humidity;BMP_temperature;BMP_pressure;BME280_temperature;BME280_humidity;BME280_pressure;Samples;Min_cycle;Max_cycle;Signal;HPM_P1;HPM_P2
2022/01/21 00:00:18;;;;;;;7.55;4.65;;;;;;;5.19;52.23;94901.06;5081787;28;20193;-70
2022/01/21 00:02:45;;;;;;;7.55;4.53;;;;;;;5.27;52.20;94890.00;5082256;28;20220;-70
2022/01/21 00:05:13;;;;;;;8.10;4.00;;;;;;;5.25;52.32;94906.81;5079070;28;20330;-70
2022/01/21 00:07:41;;;;;;;7.45;3.55;;;;;;;5.22;52.44;94906.88;5082257;28;20225;-69
2022/01/21 00:10:10;;;;;;;6.53;3.65;;;;;;;5.18;52.13;94904.44;5081764;28;20232;-70
2022/01/21 00:12:37;;;;;;;7.10;3.47;;;;;;;5.17;52.26;94908.66;5083438;28;20261;-69
2022/01/21 00:15:06;;;;;;;3.25;2.95;;;;;;;5.24;51.90;94910.19;5081386;28;20288;-69
2022/01/21 00:17:33;;;;;;;3.00;2.80;;;;;;;5.09;52.19;94911.28;5081601;28;20209;-70
2022/01/21 00:30:54;;;;;;;2.80;2.47;;;;;;;5.18;52.55;94934.69;5080711;28;22652;-70
2022/01/21 00:33:21;;;;;;;3.83;2.50;;;;;;;5.18;52.05;94945.59;5082767;28;20286;-70
2022/01/21 00:35:47;;;;;;;2.88;2.45;;;;;;;5.14;52.08;94949.00;5082724;28;20198;-70
2022/01/21 00:38:16;;;;;;;6.07;2.28;;;;;;;5.12;52.75;94955.75;5081336;28;20203;-70
2022/01/21 00:40:44;;;;;;;2.35;2.03;;;;;;;5.13;52.54;94949.84;5082496;28;20197;-68
2022/01/21 00:43:17;;;;;;;4.22;2.38;;;;;;;5.20;52.13;94963.19;5081901;28;20290;-68
2022/01/21 00:45:44;;;;;;;5.93;2.90;;;;;;;5.16;52.16;94962.41;5081739;28;20229;-69
2022/01/21 00:48:10;;;;;;;3.22;2.58;;;;;;;5.13;52.35;94965.78;5080939;28;20202;-67
2022/01/21 00:50:37;;;;;;;2.40;2.20;;;;;;;5.23;52.79;94975.72;5082725;28;20201;-68
2022/01/21 00:53:04;;;;;;;2.88;2.58;;;;;;;5.10;58.24;94983.47;5083037;28;20270;-69
2022/01/21 00:55:32;;;;;;;3.83;2.28;;;;;;;4.88;64.88;94972.03;5082927;28;20762;-69
2022/01/21 00:57:59;;;;;;;4.80;2.60;;;;;;;4.97;68.25;94996.22;5081611;28;20224;-69
2022/01/21 01:00:26;;;;;;;4.88;2.15;;;;;;;4.90;72.17;94997.19;5082055;28;21054;-69
2022/01/21 01:02:53;;;;;;;5.63;2.67;;;;;;;4.65;74.10;94979.88;5082832;28;20409;-69
2022/01/21 01:05:20;;;;;;;4.60;2.57;;;;;;;4.44;76.85;94995.22;5082726;28;20282;-68
2022/01/21 01:07:47;;;;;;;4.00;2.47;;;;;;;4.40;77.92;94984.34;5082293;28;20277;-69
2022/01/21 01:10:21;;;;;;;2.50;2.30;;;;;;;4.49;77.85;94978.34;5081994;28;20209;-69
2022/01/21 01:12:58;;;;;;;8.55;3.17;;;;;;;4.32;80.08;94967.66;5082141;28;20212;-69
2022/01/21 01:20:54;;;;;;;3.37;2.90;;;;;;;4.16;80.02;94966.16;5080446;28;20255;-70
2022/01/21 01:23:26;;;;;;;2.87;2.20;;;;;;;4.12;80.27;94959.50;5082178;28;20204;-69
2022/01/21 01:28:41;;;;;;;4.37;3.00;;;;;;;3.99;80.77;94966.31;5081896;28;20774;-69
2022/01/21 01:31:07;;;;;;;4.43;2.23;;;;;;;4.29;80.34;94965.19;5082878;28;20237;-70
2022/01/21 01:33:40;;;;;;;2.60;2.40;;;;;;;4.30;79.40;94947.56;5081139;28;20201;-69
2022/01/21 01:36:08;;;;;;;3.35;2.30;;;;;;;4.51;78.14;94946.47;5079975;28;20285;-70
2022/01/21 01:38:59;;;;;;;3.53;2.50;;;;;;;4.56;78.53;94948.94;5081333;28;20257;-69
2022/01/21 01:41:30;;;;;;;5.93;3.35;;;;;;;4.33;79.57;94936.63;5080504;28;20201;-69
2022/01/21 01:49:35;;;;;;;3.90;3.47;;;;;;;4.08;82.46;94946.97;5081995;28;20211;-70
2022/01/21 01:52:02;;;;;;;3.55;3.25;;;;;;;4.16;82.53;94943.53;5082133;28;20878;-70
2022/01/21 01:54:32;;;;;;;7.23;3.50;;;;;;;4.12;83.00;94942.72;5081910;28;20205;-70
2022/01/21 01:56:59;;;;;;;4.97;3.55;;;;;;;4.16;83.39;94933.47;5079965;28;20289;-70
2022/01/21 01:59:28;;;;;;;3.13;2.90;;;;;;;4.16;83.18;94938.50;5082108;28;20193;-70
2022/01/21 02:01:57;;;;;;;6.10;3.43;;;;;;;3.83;84.86;94960.63;5082673;28;20204;-70
2022/01/21 02:04:24;;;;;;;4.10;3.70;;;;;;;3.87;85.84;94949.69;5085721;27;20671;-69
2022/01/21 02:06:52;;;;;;;3.77;3.20;;;;;;;3.80;86.35;94950.59;5084936;28;20266;-69
2022/01/21 02:09:19;;;;;;;5.18;3.83;;;;;;;3.78;86.78;94947.25;5085820;28;20245;-70
2022/01/21 02:11:47;;;;;;;5.40;3.92;;;;;;;3.73;87.00;94943.94;5084809;28;20242;-70
2022/01/21 02:14:15;;;;;;;8.77;3.57;;;;;;;3.90;86.42;94943.81;5085177;28;20679;-69
2022/01/21 02:17:10;;;;;;;4.20;3.80;;;;;;;3.62;87.75;94945.75;5085724;28;20643;-70
2022/01/21 02:22:29;;;;;;;3.67;3.30;;;;;;;3.53;89.14;94955.84;5086314;28;20722;-69
2022/01/21 02:24:58;;;;;;;5.37;4.30;;;;;;;3.35;90.50;94950.16;5085700;28;20652;-69
2022/01/21 02:27:26;;;;;;;4.20;3.90;;;;;;;3.30;90.39;94954.34;5085396;28;20302;-69
2022/01/21 02:29:58;;;;;;;4.73;4.07;;;;;;;3.28;91.28;94957.72;5085362;28;20730;-69
2022/01/21 02:32:25;;;;;;;4.33;3.93;;;;;;;3.33;90.54;94953.50;5086103;28;20326;-69
2022/01/21 02:34:52;;;;;;;5.87;4.50;;;;;;;2.95;92.07;94952.09;5086114;28;20201;-69
2022/01/21 02:37:21;;;;;;;8.90;4.60;;;;;;;2.76;92.76;94950.53;5084721;28;20205;-68
2022/01/21 02:39:50;;;;;;;6.93;4.43;;;;;;;2.69;93.38;94972.31;5085814;28;20202;-69
2022/01/21 02:42:18;;;;;;;7.47;4.77;;;;;;;2.42;95.38;94961.56;5084846;28;20214;-69
2022/01/21 02:44:47;;;;;;;5.77;5.07;;;;;;;2.61;95.38;94970.69;5085220;28;20270;-68
2022/01/21 02:47:14;;;;;;;5.33;4.93;;;;;;;2.53;94.41;94977.41;5084305;28;20660;-68
2022/01/21 02:49:41;;;;;;;4.67;4.07;;;;;;;2.49;95.46;94974.06;5085903;28;20209;-69
2022/01/21 02:52:09;;;;;;;5.93;4.43;;;;;;;2.48;95.72;94987.44;5085645;28;20944;-69
2022/01/21 02:54:36;;;;;;;6.27;5.33;;;;;;;2.59;95.33;94982.41;5084084;28;20216;-69
2022/01/21 02:57:07;;;;;;;6.23;5.40;;;;;;;2.62;94.66;94980.72;5085580;28;20210;-69
2022/01/21 02:59:34;;;;;;;6.67;5.10;;;;;;;2.67;94.59;94981.53;5085077;28;20201;-68
2022/01/21 03:02:01;;;;;;;7.07;4.63;;;;;;;2.72;94.86;94982.31;5085209;28;20670;-69
2022/01/21 03:04:35;;;;;;;4.40;3.85;;;;;;;2.36;95.64;94985.00;5085158;28;20209;-69
2022/01/21 03:07:02;;;;;;;4.87;3.93;;;;;;;2.55;95.37;94969.03;5085256;28;20245;-69
2022/01/21 03:09:29;;;;;;;4.20;3.90;;;;;;;2.87;93.75;94983.09;5085529;28;20205;-70
2022/01/21 03:11:56;;;;;;;4.38;4.05;;;;;;;3.06;93.04;94988.00;5084688;28;21055;-70
2022/01/21 03:14:24;;;;;;;3.70;3.40;;;;;;;3.11;91.82;94995.50;5084280;28;20285;-69
2022/01/21 03:16:51;;;;;;;3.17;2.90;;;;;;;3.07;91.34;94991.34;5083620;28;20209;-70
2022/01/21 03:19:18;;;;;;;2.93;2.73;;;;;;;3.14;91.00;95003.03;5085826;28;20289;-69
2022/01/21 03:21:44;;;;;;;3.15;2.53;;;;;;;3.07;91.48;94999.72;5084522;28;20727;-69
2022/01/21 03:24:11;;;;;;;2.03;1.87;;;;;;;3.06;90.41;95004.75;5085193;28;21407;-69
2022/01/21 03:26:38;;;;;;;1.80;1.70;;;;;;;2.77;92.25;95001.53;5083292;28;20284;-69
2022/01/21 03:29:06;;;;;;;1.73;1.63;;;;;;;2.82;92.62;94994.84;5084061;28;20251;-70
2022/01/21 03:31:34;;;;;;;1.80;1.70;;;;;;;2.84;92.33;95011.56;5084577;28;20289;-70
2022/01/21 03:34:01;;;;;;;1.35;1.35;;;;;;;2.70;92.48;95014.13;5085318;28;20307;-69
2022/01/21 03:36:29;;;;;;;1.20;1.20;;;;;;;2.75;92.30;95019.13;5084149;28;20251;-69
2022/01/21 03:38:57;;;;;;;1.20;1.10;;;;;;;2.54;92.49;95017.53;5083574;28;20201;-70
2022/01/21 03:41:24;;;;;;;1.97;1.73;;;;;;;2.56;93.50;95003.31;5084348;28;21263;-70
2022/01/21 03:43:50;;;;;;;2.00;1.90;;;;;;;2.68;92.80;95015.81;5084277;28;20857;-71
2022/01/21 03:46:18;;;;;;;1.30;1.20;;;;;;;2.69;92.39;95035.06;5084611;28;20305;-71
2022/01/21 03:48:49;;;;;;;1.10;1.10;;;;;;;2.80;92.92;95021.59;5083894;28;20297;-70
2022/01/21 03:51:17;;;;;;;0.98;0.82;;;;;;;2.63;92.52;95024.19;5085101;28;20209;-71
2022/01/21 03:53:44;;;;;;;1.02;1.02;;;;;;;2.34;93.59;95024.28;5083475;28;20201;-71
2022/01/21 03:56:10;;;;;;;0.90;0.90;;;;;;;2.42;93.70;95032.63;5084864;28;20201;-71
2022/01/21 03:58:37;;;;;;;1.10;1.10;;;;;;;2.45;94.04;95037.63;5082826;28;20254;-71
2022/01/21 04:01:04;;;;;;;0.80;0.80;;;;;;;2.54;93.54;95040.09;5084751;28;20560;-71
2022/01/21 04:03:32;;;;;;;1.65;1.42;;;;;;;2.63;93.67;95035.06;5084476;28;20262;-71
2022/01/21 04:06:01;;;;;;;1.10;1.10;;;;;;;2.65;93.13;95032.56;5083459;28;20710;-70
2022/01/21 04:08:28;;;;;;;1.65;1.55;;;;;;;2.78;93.25;95038.34;5083330;28;20206;-71
2022/01/21 04:10:55;;;;;;;2.60;2.40;;;;;;;2.68;92.59;95038.41;5083017;28;20201;-71
2022/01/21 04:13:23;;;;;;;1.95;1.85;;;;;;;2.49;93.70;95046.81;5084321;28;20275;-71
2022/01/21 04:15:53;;;;;;;1.50;1.40;;;;;;;2.52;93.70;95051.81;5083407;28;20209;-70
2022/01/21 04:18:22;;;;;;;1.10;1.10;;;;;;;2.17;94.62;95041.03;5083110;28;20193;-70
2022/01/21 04:20:50;;;;;;;0.90;0.90;;;;;;;2.30;95.62;95048.53;5083296;28;20239;-70
2022/01/21 04:23:20;;;;;;;1.25;1.25;;;;;;;2.38;94.52;95054.38;5084881;28;20201;-70
2022/01/21 04:25:48;;;;;;;1.10;1.10;;;;;;;2.50;93.61;95053.50;5082846;28;20651;-70
2022/01/21 04:28:15;;;;;;;1.30;1.20;;;;;;;2.30;95.80;95062.75;5083308;28;20656;-70
2022/01/21 04:30:42;;;;;;;1.20;1.20;;;;;;;2.10;96.45;95069.47;5083409;28;20236;-70
2022/01/21 04:33:09;;;;;;;2.80;1.60;;;;;;;1.72;97.91;95060.31;5082910;28;20611;-70
2022/01/21 04:35:36;;;;;;;2.27;2.10;;;;;;;2.00;98.39;95064.44;5083330;28;20197;-70
2022/01/21 04:38:06;;;;;;;2.73;2.53;;;;;;;2.24;96.42;95075.28;5083542;28;20667;-70
2022/01/21 04:40:40;;;;;;;2.53;2.33;;;;;;;2.24;96.21;95081.13;5084506;28;20201;-71
2022/01/21 04:48:36;;;;;;;3.20;2.27;;;;;;;2.38;94.75;95098.69;5082311;28;21396;-71
2022/01/21 04:51:13;;;;;;;2.67;2.27;;;;;;;2.35;94.95;95104.53;5083096;28;20205;-71
2022/01/21 04:53:41;;;;;;;1.58;1.45;;;;;;;2.37;94.34;95097.84;5082329;28;20208;-69
2022/01/21 04:56:10;;;;;;;1.53;1.43;;;;;;;2.45;93.64;95102.84;5082064;28;20637;-69
2022/01/21 04:58:37;;;;;;;1.20;1.20;;;;;;;2.39;93.68;95110.38;5081649;28;20234;-70
2022/01/21 05:01:06;;;;;;;1.20;1.20;;;;;;;2.35;93.80;95116.22;5083615;28;20197;-70
2022/01/21 05:03:34;;;;;;;3.07;1.20;;;;;;;2.33;93.71;95120.41;5082935;28;20193;-70
2022/01/21 05:06:01;;;;;;;1.85;1.75;;;;;;;2.36;92.48;95125.44;5081911;28;20781;-70
2022/01/21 05:08:32;;;;;;;1.92;1.52;;;;;;;2.20;94.25;95117.09;5081960;28;20201;-71
2022/01/21 05:11:00;;;;;;;2.20;1.50;;;;;;;2.33;94.26;95120.41;5082512;28;20647;-70
2022/01/21 05:13:36;;;;;;;1.63;1.47;;;;;;;2.34;93.24;95127.94;5082255;28;20223;-71
2022/01/21 05:16:07;;;;;;;1.50;1.40;;;;;;;1.94;95.69;95114.59;5082129;28;20409;-71
2022/01/21 05:18:34;;;;;;;1.57;1.47;;;;;;;2.13;93.96;95122.94;5082229;28;20632;-72
2022/01/21 05:21:01;;;;;;;5.60;1.60;;;;;;;1.78;94.30;95135.44;5082560;28;20707;-71
2022/01/21 05:23:28;;;;;;;2.30;1.40;;;;;;;1.60;94.90;95130.41;5080787;28;20205;-71
2022/01/21 05:25:55;;;;;;;1.70;1.60;;;;;;;1.68;95.17;95141.28;5082134;28;20301;-71
2022/01/21 05:28:22;;;;;;;3.07;1.60;;;;;;;1.73;95.77;95147.16;5081112;28;20204;-71
2022/01/21 05:30:50;;;;;;;1.53;1.43;;;;;;;1.51;95.51;95150.41;5082506;28;20257;-71
2022/01/21 05:33:17;;;;;;;2.03;1.93;;;;;;;1.61;95.91;95157.13;5082053;28;20280;-72
2022/01/21 05:35:43;;;;;;;1.97;1.50;;;;;;;1.70;94.34;95162.16;5082089;28;20255;-71
2022/01/21 05:38:10;;;;;;;2.97;1.80;;;;;;;1.64;94.16;95167.16;5080853;28;21092;-72
2022/01/21 05:40:37;;;;;;;1.80;1.70;;;;;;;1.90;94.20;95175.56;5082413;28;20205;-71
2022/01/21 05:43:04;;;;;;;1.67;1.57;;;;;;;1.71;94.55;95181.38;5082460;28;20625;-71
2022/01/21 05:48:17;;;;;;;1.70;1.60;;;;;;;1.68;94.09;95194.72;5080901;28;21153;-72
2022/01/21 05:50:44;;;;;;;2.57;1.63;;;;;;;1.82;93.34;95197.25;5081421;28;20193;-71
2022/01/21 05:53:14;;;;;;;3.33;3.13;;;;;;;1.96;93.07;95200.63;5082435;28;20968;-70
2022/01/21 05:55:42;;;;;;;2.10;2.00;;;;;;;1.95;91.41;95193.94;5081038;28;20740;-72
2022/01/21 05:58:10;;;;;;;2.40;2.27;;;;;;;1.87;91.41;95198.09;5081703;28;20201;-71
2022/01/21 06:00:38;;;;;;;2.50;2.30;;;;;;;1.74;91.90;95213.94;5082406;28;20203;-71
2022/01/21 06:03:06;;;;;;;1.90;1.80;;;;;;;1.42;93.32;95223.03;5081766;28;20963;-71
2022/01/21 06:05:34;;;;;;;5.60;5.10;;;;;;;1.66;93.31;95226.47;5081837;28;20200;-71
2022/01/21 06:08:02;;;;;;;5.97;3.17;;;;;;;1.81;92.46;95233.16;5080925;28;20584;-71
2022/01/21 06:10:32;;;;;;;2.40;2.20;;;;;;;1.81;91.63;95240.69;5081946;28;20205;-71
2022/01/21 06:12:58;;;;;;;1.70;1.60;;;;;;;1.65;92.22;95241.47;5080511;28;20757;-71
2022/01/21 06:15:26;;;;;;;2.38;2.17;;;;;;;1.80;92.46;95238.16;5080358;28;20761;-71
2022/01/21 06:17:53;;;;;;;4.70;3.30;;;;;;;1.52;92.29;95235.56;5080449;28;21048;-72
2022/01/21 06:20:20;;;;;;;3.13;2.87;;;;;;;1.74;93.51;95253.19;5081920;28;20201;-71
2022/01/21 06:22:48;;;;;;;4.70;4.07;;;;;;;1.81;92.31;95259.88;5081742;28;20807;-71
2022/01/21 06:25:15;;;;;;;7.20;3.80;;;;;;;1.69;92.34;95264.03;5081558;28;20207;-71
2022/01/21 06:27:45;;;;;;;4.47;3.87;;;;;;;1.66;92.55;95261.53;5079948;28;20264;-71
2022/01/21 06:30:14;;;;;;;7.93;6.20;;;;;;;1.61;91.85;95272.34;5081083;28;20562;-72
2022/01/21 06:32:41;;;;;;;3.97;2.90;;;;;;;1.33;92.46;95269.72;5081722;28;20933;-71
2022/01/21 06:35:09;;;;;;;3.73;3.10;;;;;;;1.23;91.14;95279.69;5080740;28;20217;-71
2022/01/21 06:37:36;;;;;;;3.47;2.23;;;;;;;1.13;91.58;95281.28;5081057;28;20258;-70
2022/01/21 06:40:07;;;;;;;2.90;2.17;;;;;;;1.19;91.85;95283.84;5081631;28;20646;-71
2022/01/21 06:42:34;;;;;;;3.97;3.03;;;;;;;1.20;92.31;95287.19;5081911;28;20209;-71
2022/01/21 06:45:01;;;;;;;16.53;3.27;;;;;;;1.12;92.81;95288.78;5081321;28;20193;-70
2022/01/21 06:47:29;;;;;;;3.23;2.97;;;;;;;1.42;91.92;95286.47;5080265;28;20236;-72
2022/01/21 06:49:58;;;;;;;3.47;2.60;;;;;;;1.51;90.09;95300.69;5084738;28;21392;-71
2022/01/21 06:52:26;;;;;;;3.05;2.83;;;;;;;1.41;90.59;95296.47;5085679;28;20692;-69
2022/01/21 06:54:53;;;;;;;3.17;2.43;;;;;;;1.35;91.37;95303.13;5085305;28;20204;-71
2022/01/21 06:57:21;;;;;;;2.33;2.23;;;;;;;1.52;91.12;95322.38;5084428;28;20285;-69
2022/01/21 06:59:48;;;;;;;10.47;5.83;;;;;;;1.65;87.36;95324.97;5084657;28;20668;-70
2022/01/21 07:02:16;;;;;;;10.20;4.87;;;;;;;1.19;88.59;95328.91;5084376;28;20201;-70
2022/01/21 07:04:43;;;;;;;12.27;7.33;;;;;;;1.04;89.29;95346.28;5084758;28;20209;-70
2022/01/21 07:07:10;;;;;;;6.50;3.40;;;;;;;0.94;89.16;95347.06;5084413;28;20235;-70
2022/01/21 07:09:37;;;;;;;3.33;2.13;;;;;;;1.13;88.20;95343.88;5083168;27;21219;-70
2022/01/21 07:12:04;;;;;;;2.43;2.23;;;;;;;1.09;88.18;95346.31;5085615;28;20254;-70
2022/01/21 07:14:32;;;;;;;7.23;2.70;;;;;;;1.18;87.09;95342.25;5084415;28;20675;-70
2022/01/21 07:16:59;;;;;;;6.03;2.83;;;;;;;1.44;87.73;95349.06;5084122;28;20210;-70
2022/01/21 07:19:26;;;;;;;5.50;2.03;;;;;;;1.40;85.46;95357.41;5084930;28;20213;-70
2022/01/21 07:21:53;;;;;;;4.13;2.00;;;;;;;1.47;86.75;95374.16;5084646;28;20224;-70
2022/01/21 07:24:20;;;;;;;1.90;1.80;;;;;;;1.44;86.88;95381.63;5085264;28;20196;-70
2022/01/21 07:26:47;;;;;;;4.83;2.20;;;;;;;1.57;86.47;95350.81;5084850;28;20228;-71
2022/01/21 07:29:14;;;;;;;4.67;1.70;;;;;;;1.56;86.08;95380.03;5083908;28;20684;-70
2022/01/21 07:31:43;;;;;;;6.57;1.80;;;;;;;1.55;87.29;95382.53;5085334;28;20213;-71
2022/01/21 07:34:10;;;;;;;1.50;1.40;;;;;;;1.22;88.85;95386.50;5084764;28;20265;-70
2022/01/21 07:36:36;;;;;;;2.60;1.47;;;;;;;1.06;89.32;95376.34;5084365;28;21859;-70
2022/01/21 07:39:05;;;;;;;2.67;1.70;;;;;;;0.96;88.63;95392.97;5084059;28;20260;-70
2022/01/21 07:41:32;;;;;;;3.10;2.90;;;;;;;1.07;89.02;95393.03;5083555;28;20212;-70
2022/01/21 07:43:58;;;;;;;3.67;1.80;;;;;;;1.24;87.28;95391.47;5084991;28;20213;-71
2022/01/21 07:46:26;;;;;;;4.67;1.80;;;;;;;1.53;86.37;95394.19;5084277;28;20201;-70
2022/01/21 07:48:56;;;;;;;2.63;1.90;;;;;;;1.21;87.06;95397.34;5083398;28;20215;-72
2022/01/21 07:51:23;;;;;;;2.97;1.87;;;;;;;1.04;88.26;95393.84;5084182;28;20491;-71
2022/01/21 07:53:50;;;;;;;2.80;2.00;;;;;;;1.16;88.67;95398.97;5083431;28;20210;-71
2022/01/21 07:56:17;;;;;;;2.07;1.87;;;;;;;1.02;89.11;95382.97;5081783;28;20205;-71
2022/01/21 07:58:44;;;;;;;1.70;1.60;;;;;;;1.17;90.18;95398.13;5084666;28;20293;-71
2022/01/21 08:01:11;;;;;;;2.70;1.83;;;;;;;1.33;89.55;95406.59;5083812;28;20266;-71
2022/01/21 08:03:38;;;;;;;2.13;1.97;;;;;;;1.51;87.43;95410.88;5083791;28;20209;-71
2022/01/21 08:06:06;;;;;;;5.50;2.17;;;;;;;1.76;87.38;95421.88;5083097;28;20205;-71
2022/01/21 08:08:33;;;;;;;5.00;2.85;;;;;;;1.65;85.66;95425.19;5082851;28;20240;-72
2022/01/21 08:11:00;;;;;;;5.70;3.17;;;;;;;1.82;86.16;95402.72;5082919;28;20278;-71
2022/01/21 08:13:28;;;;;;;6.88;2.80;;;;;;;1.75;85.07;95421.06;5084648;28;20197;-71
2022/01/21 08:15:54;;;;;;;3.72;2.10;;;;;;;1.88;83.72;95425.31;5082758;28;20634;-71
2022/01/21 08:18:21;;;;;;;5.60;2.67;;;;;;;1.65;84.52;95429.34;5083844;28;20202;-70
2022/01/21 08:20:48;;;;;;;7.23;4.07;;;;;;;1.70;84.27;95433.56;5082837;28;20790;-72
2022/01/21 08:23:16;;;;;;;16.52;6.90;;;;;;;1.81;83.69;95435.28;5083862;28;20205;-71
2022/01/21 08:25:43;;;;;;;10.35;4.47;;;;;;;1.99;83.91;95421.19;5077720;28;20640;-71
2022/01/21 08:28:10;;;;;;;9.03;4.60;;;;;;;2.11;81.93;95427.94;5082244;28;21162;-71
2022/01/21 08:30:38;;;;;;;14.90;7.03;;;;;;;1.84;82.56;95436.16;5082436;28;20309;-71
2022/01/21 08:33:05;;;;;;;12.00;4.13;;;;;;;1.68;85.25;95439.41;5083184;28;20212;-71
2022/01/21 08:35:32;;;;;;;16.15;8.70;;;;;;;1.97;84.78;95445.44;5083155;28;20740;-70
2022/01/21 08:37:59;;;;;;;14.93;9.27;;;;;;;1.87;84.21;95440.34;5082351;28;20272;-70
2022/01/21 08:40:28;;;;;;;7.95;4.30;;;;;;;1.94;84.99;95437.06;5082756;28;20663;-70
2022/01/21 08:42:55;;;;;;;4.07;3.63;;;;;;;1.83;83.44;95414.44;5083559;28;20188;-71
2022/01/21 08:45:22;;;;;;;4.32;3.15;;;;;;;1.91;83.28;95412.81;5083389;28;20273;-71
2022/01/21 08:47:51;;;;;;;7.83;5.90;;;;;;;2.05;82.46;95406.19;5082727;28;20216;-71
2022/01/21 08:50:20;;;;;;;26.38;11.77;;;;;;;2.09;82.38;95417.06;5083479;28;20216;-72
2022/01/21 08:52:47;;;;;;;17.63;8.68;;;;;;;2.09;82.48;95421.25;5082290;28;20736;-71
2022/01/21 08:55:16;;;;;;;5.15;3.38;;;;;;;2.25;82.24;95436.34;5083392;28;20209;-71
2022/01/21 08:57:46;;;;;;;2.88;2.45;;;;;;;2.30;81.91;95441.38;5080917;28;20205;-70
2022/01/21 09:00:17;;;;;;;3.73;2.10;;;;;;;2.25;81.60;95448.03;5081260;28;20209;-71
2022/01/21 09:02:44;;;;;;;1.73;1.63;;;;;;;2.22;82.48;95450.56;5080992;28;20273;-71
2022/01/21 09:05:11;;;;;;;5.28;1.63;;;;;;;2.41;81.54;95443.94;5081898;28;20203;-71
2022/01/21 09:07:38;;;;;;;2.63;1.67;;;;;;;2.21;82.25;95451.41;5081696;28;20293;-72
2022/01/21 09:10:07;;;;;;;1.73;1.63;;;;;;;2.04;82.90;95432.06;5081912;28;20265;-71
2022/01/21 09:12:35;;;;;;;1.77;1.65;;;;;;;2.19;80.16;95417.94;5082169;28;20231;-70
2022/01/21 09:15:03;;;;;;;25.20;12.95;;;;;;;2.36;80.54;95411.31;5082282;28;20266;-71
2022/01/21 09:17:30;;;;;;;3.67;3.27;;;;;;;2.62;78.99;95408.91;5080185;28;20214;-71
2022/01/21 09:19:57;;;;;;;2.13;2.03;;;;;;;2.52;79.00;95410.53;5080981;28;20201;-71
2022/01/21 09:22:24;;;;;;;1.88;1.77;;;;;;;2.48;79.83;95416.38;5081588;28;20220;-73
2022/01/21 09:24:51;;;;;;;2.20;2.00;;;;;;;2.60;79.93;95405.53;5080314;28;20209;-74
2022/01/21 09:27:17;;;;;;;21.55;10.90;;;;;;;2.45;79.04;95406.34;5079430;28;20310;-72
2022/01/21 09:29:44;;;;;;;7.70;6.07;;;;;;;2.21;79.02;95387.03;5080008;28;20282;-72
2022/01/21 09:32:12;;;;;;;3.20;3.00;;;;;;;2.40;78.89;95385.44;5081896;28;20239;-71
2022/01/21 09:34:39;;;;;;;2.03;1.83;;;;;;;2.56;79.44;95384.63;5082067;28;20201;-72
2022/01/21 09:37:05;;;;;;;1.73;1.63;;;;;;;2.92;76.43;95378.00;5080803;28;20655;-73
2022/01/21 09:39:32;;;;;;;4.63;3.67;;;;;;;3.04;75.62;95383.84;5082042;28;20281;-71
2022/01/21 09:42:02;;;;;;;3.33;3.00;;;;;;;2.89;77.38;95393.06;5081818;28;22776;-70
2022/01/21 09:44:30;;;;;;;11.93;7.27;;;;;;;2.72;76.51;95393.84;5081924;28;20258;-70
2022/01/21 09:46:59;;;;;;;36.58;12.93;;;;;;;2.56;78.83;95374.59;5082074;28;20193;-71
2022/01/21 09:49:28;;;;;;;6.40;4.13;;;;;;;2.55;78.04;95390.47;5082131;28;20201;-71
2022/01/21 09:51:58;;;;;;;6.60;3.80;;;;;;;2.38;79.16;95362.84;5081953;28;20670;-71
2022/01/21 09:54:27;;;;;;;5.87;3.17;;;;;;;2.70;77.50;95369.59;5081940;28;20205;-73
2022/01/21 09:56:56;;;;;;;5.13;2.15;;;;;;;2.72;76.30;95353.69;5081677;28;20205;-70
2022/01/21 09:59:25;;;;;;;6.47;2.77;;;;;;;3.27;76.09;95376.31;5081643;28;20204;-71
2022/01/21 10:01:54;;;;;;;2.43;2.10;;;;;;;3.48;74.67;95364.56;5081575;28;20228;-70
2022/01/21 10:04:26;;;;;;;2.53;2.28;;;;;;;3.53;74.18;95362.88;5081490;28;20201;-73
2022/01/21 10:06:55;;;;;;;2.33;2.20;;;;;;;3.62;73.05;95368.75;5079272;28;20566;-71
2022/01/21 10:09:23;;;;;;;8.38;2.17;;;;;;;3.88;72.58;95366.16;5079413;28;20274;-71
2022/01/21 10:11:52;;;;;;;2.65;2.17;;;;;;;3.89;70.85;95357.78;5081616;28;20217;-70
2022/01/21 10:14:22;;;;;;;1.92;1.83;;;;;;;3.77;72.15;95360.31;5080651;28;20212;-70
2022/01/21 10:16:49;;;;;;;16.88;8.40;;;;;;;3.80;71.83;95362.00;5079705;28;20201;-70
2022/01/21 10:19:23;;;;;;;7.07;4.07;;;;;;;3.77;72.73;95347.75;5080415;28;21755;-71
2022/01/21 10:21:59;;;;;;;2.47;1.92;;;;;;;3.90;72.31;95346.06;5080215;28;20220;-71
2022/01/21 10:24:27;;;;;;;2.83;2.00;;;;;;;3.81;71.86;95338.53;5086016;28;20201;-71
2022/01/21 10:26:56;;;;;;;2.30;2.10;;;;;;;3.71;72.56;95341.06;5084954;28;20280;-71
2022/01/21 10:29:23;;;;;;;5.43;3.25;;;;;;;3.60;72.32;95346.97;5084558;28;20519;-70
2022/01/21 10:31:58;;;;;;;5.90;2.85;;;;;;;3.77;72.25;95350.25;5084960;28;20257;-71
2022/01/21 10:34:27;;;;;;;4.30;3.72;;;;;;;3.26;71.98;95341.16;5085185;28;20574;-71
2022/01/21 10:36:57;;;;;;;5.07;4.57;;;;;;;3.28;72.91;95337.81;5085293;28;20205;-72
2022/01/21 10:39:32;;;;;;;6.03;4.90;;;;;;;3.52;71.36;95336.09;5085137;28;20873;-71
2022/01/21 10:42:00;;;;;;;4.65;4.25;;;;;;;3.75;70.46;95340.22;5086098;28;20654;-71
2022/01/21 10:44:29;;;;;;;5.18;4.70;;;;;;;3.98;70.37;95332.59;5085473;28;20248;-71
2022/01/21 10:47:06;;;;;;;7.18;4.10;;;;;;;4.13;69.98;95330.88;5085024;28;20197;-70
2022/01/21 10:49:33;;;;;;;4.55;4.15;;;;;;;4.16;69.52;95330.84;5085651;28;20236;-71
2022/01/21 10:52:00;;;;;;;8.13;5.03;;;;;;;3.77;70.90;95325.13;5085496;28;20573;-71
2022/01/21 10:54:30;;;;;;;7.00;3.30;;;;;;;3.89;70.15;95322.59;5084939;28;20215;-72
2022/01/21 10:57:13;;;;;;;2.92;2.13;;;;;;;4.12;70.29;95321.66;5084421;28;20319;-71
2022/01/21 10:59:48;;;;;;;2.35;2.15;;;;;;;4.13;69.84;95325.84;5085740;28;20358;-71
2022/01/21 11:02:16;;;;;;;9.77;3.50;;;;;;;4.29;68.49;95314.84;5085196;28;20211;-71
2022/01/21 11:04:43;;;;;;;3.15;2.80;;;;;;;4.14;68.11;95312.41;5085012;28;20550;-71
2022/01/21 11:07:13;;;;;;;3.42;2.88;;;;;;;3.75;70.76;95317.59;5087807;28;20201;-71
2022/01/21 11:09:41;;;;;;;3.97;3.30;;;;;;;3.80;71.43;95312.56;5089350;28;20358;-71
2022/01/21 11:12:10;;;;;;;3.85;2.83;;;;;;;3.97;70.15;95315.00;5091843;28;20212;-71
2022/01/21 11:14:37;;;;;;;10.63;2.70;;;;;;;4.06;69.74;95308.25;5090891;28;20230;-71
2022/01/21 11:17:09;;;;;;;6.60;3.15;;;;;;;3.84;70.96;95309.19;5090926;28;20267;-70
2022/01/21 11:19:36;;;;;;;11.25;5.43;;;;;;;3.89;69.23;95311.69;5090293;28;20528;-70
2022/01/21 11:22:05;;;;;;;6.35;4.25;;;;;;;3.91;67.43;95303.31;5089329;28;20214;-69
2022/01/21 11:24:34;;;;;;;4.43;3.40;;;;;;;3.74;67.91;95317.59;5087838;28;20374;-70
2022/01/21 11:27:12;;;;;;;3.90;2.05;;;;;;;3.47;69.85;95302.59;5088697;28;20194;-70
2022/01/21 11:29:40;;;;;;;2.70;2.50;;;;;;;3.59;68.35;95300.91;5089403;28;20286;-69
2022/01/21 11:32:08;;;;;;;7.47;3.33;;;;;;;3.77;66.98;95302.50;5089397;28;20272;-69
2022/01/21 11:34:35;;;;;;;6.10;5.32;;;;;;;3.69;68.49;95294.19;5088621;28;20190;-70
2022/01/21 11:37:03;;;;;;;3.77;3.33;;;;;;;3.81;66.26;95304.16;5089618;28;20190;-69
2022/01/21 11:39:32;;;;;;;4.93;3.80;;;;;;;3.65;67.62;95308.44;5091896;28;20672;-69
2022/01/21 11:42:00;;;;;;;4.30;3.10;;;;;;;3.29;69.75;95293.44;5092223;28;20190;-69
2022/01/21 11:44:30;;;;;;;5.50;3.70;;;;;;;3.17;67.66;95306.84;5091929;28;20262;-70
2022/01/21 11:47:02;;;;;;;6.07;2.80;;;;;;;2.85;68.08;95280.94;5092650;28;20190;-70
2022/01/21 11:49:32;;;;;;;2.60;2.38;;;;;;;2.97;66.92;95301.03;5093047;28;20221;-70
2022/01/21 11:52:14;;;;;;;5.20;2.55;;;;;;;2.79;70.46;95311.03;5092925;28;20202;-70
2022/01/21 11:54:41;;;;;;;7.28;4.25;;;;;;;2.58;69.94;95306.84;5093145;28;20194;-72
2022/01/21 11:57:10;;;;;;;7.17;4.23;;;;;;;2.67;69.37;95311.88;5092262;28;20246;-70
2022/01/21 11:59:47;;;;;;;3.17;2.93;;;;;;;2.76;69.90;95303.50;5093364;28;20217;-70
2022/01/21 12:02:21;;;;;;;5.50;3.35;;;;;;;2.82;70.72;95298.50;5092891;28;20224;-71
2022/01/21 12:04:49;;;;;;;3.88;2.88;;;;;;;2.71;71.19;95289.31;5092925;28;20659;-71
2022/01/21 12:07:48;;;;;;;3.23;2.93;;;;;;;2.30;72.07;95311.81;5092547;28;20578;-70
2022/01/21 12:10:17;;;;;;;3.80;3.50;;;;;;;2.22;72.66;95313.50;5092603;28;20641;-70
2022/01/21 12:13:09;;;;;;;3.40;3.10;;;;;;;1.98;75.33;95299.19;5092514;28;20205;-71
2022/01/21 12:21:43;;;;;;;2.97;2.70;;;;;;;2.17;73.22;95289.25;5081725;28;20608;-71
2022/01/21 12:24:13;;;;;;;3.77;3.30;;;;;;;2.02;73.02;95282.50;5091925;28;20286;-69
2022/01/21 12:26:56;;;;;;;4.63;3.17;;;;;;;1.67;73.95;95299.94;5092179;28;20197;-70
2022/01/21 12:29:29;;;;;;;4.03;3.73;;;;;;;1.79;73.44;95297.47;5092218;28;20609;-71